Time;durP1;ratioP1;P1;durP2;ratioP2;P2;SDS_P1;SDS_P2;PMS_P1;PMS_P2;Temp;Humidity;BMP_temperature;BMP_pressure;BME280_temperature;BME280_humidity;BME280_pressure;Samples;Min_cycle;Max_cycle;Signal;HPM_P1;HPM_P2
2021/09/22 00:01:35;;;;;;;5.18;4.22;;;12.30;99.90;;;11.92;99.23;102466.81;4154330;28;20030;-74
2021/09/22 00:03:36;;;;;;;5.20;4.70;;;12.20;99.90;;;11.98;98.15;102465.47;4154390;28;20109;-74
2021/09/22 00:05:37;;;;;;;5.63;4.32;;;12.20;99.90;;;12.07;97.55;102470.03;4154325;28;20053;-74
2021/09/22 00:07:38;;;;;;;5.47;4.20;;;12.20;99.90;;;11.98;97.92;102471.63;4152782;28;20037;-74
2021/09/22 00:09:39;;;;;;;5.75;4.45;;;12.20;99.90;;;11.89;98.28;102472.34;4152890;28;20110;-74
2021/09/22 00:11:40;;;;;;;5.35;4.32;;;12.20;99.90;;;11.82;98.99;102471.19;4152998;28;20025;-74
2021/09/22 00:13:41;;;;;;;6.22;4.03;;;12.10;99.90;;;11.78;99.57;102468.88;4142692;28;20026;-74
2021/09/22 00:15:42;;;;;;;6.47;4.20;;;12.10;99.90;;;11.78;99.67;102461.81;4162069;28;20021;-74
2021/09/22 00:17:43;;;;;;;6.70;4.97;;;12.00;99.90;;;11.71;100.00;102455.31;4169565;28;20033;-74
2021/09/22 00:19:44;;;;;;;6.90;4.45;;;12.10;99.90;;;11.79;100.00;102468.78;4152709;28;20065;-74
2021/09/22 00:21:45;;;;;;;6.22;4.55;;;12.10;99.90;;;11.80;100.00;102470.44;4163531;28;20034;-74
2021/09/22 00:23:47;;;;;;;7.80;4.97;;;12.10;99.90;;;11.70;100.00;102464.22;4153146;28;20104;-74
2021/09/22 00:25:48;;;;;;;5.13;4.55;;;12.00;99.90;;;11.68;100.00;102472.22;4152825;28;20137;-74
2021/09/22 00:27:49;;;;;;;7.20;5.03;;;12.00;99.90;;;11.62;100.00;102456.00;4152590;28;20030;-74
2021/09/22 00:29:50;;;;;;;5.57;4.53;;;12.00;99.90;;;11.61;100.00;102459.63;4152813;28;20028;-74
2021/09/22 00:31:51;;;;;;;5.78;5.15;;;12.00;99.90;;;11.62;100.00;102458.63;4152794;28;20057;-74
2021/09/22 00:33:52;;;;;;;6.75;4.95;;;12.00;99.90;;;11.57;100.00;102451.09;4147901;28;20064;-74
2021/09/22 00:35:53;;;;;;;8.25;5.95;;;12.00;99.90;;;11.64;100.00;102464.66;4167201;28;20052;-74
2021/09/22 00:37:54;;;;;;;6.07;5.18;;;11.90;99.90;;;11.62;100.00;102450.72;4165570;28;20072;-74
2021/09/22 00:39:55;;;;;;;6.30;5.15;;;11.90;99.90;;;11.66;100.00;102446.88;4154012;28;20372;-74
2021/09/22 00:41:56;;;;;;;7.55;5.50;;;11.90;99.90;;;11.65;100.00;102445.19;4163888;28;20048;-74
2021/09/22 00:43:57;;;;;;;6.43;4.97;;;11.90;99.90;;;11.68;100.00;102449.41;4155751;28;20083;-74
2021/09/22 00:46:04;;;;;;;7.72;5.53;;;11.90;99.90;;;11.53;100.00;102425.00;4153606;28;20048;-75
2021/09/22 00:48:06;;;;;;;6.65;5.40;;;11.90;99.90;;;11.62;100.00;102448.06;4137123;28;20057;-74
2021/09/22 00:50:09;;;;;;;7.53;4.90;;;11.90;99.90;;;11.64;100.00;102438.25;4152396;28;20121;-74
2021/09/22 00:52:14;;;;;;;7.28;5.25;;;11.90;99.90;;;11.74;100.00;102452.41;4152062;28;20038;-74
2021/09/22 00:54:15;;;;;;;6.45;5.45;;;11.90;99.90;;;11.73;100.00;102457.84;4153582;28;20071;-74
2021/09/22 00:56:17;;;;;;;7.32;5.50;;;11.90;99.90;;;11.69;100.00;102441.34;4152190;28;20554;-74
2021/09/22 00:58:18;;;;;;;8.48;6.03;;;11.90;99.90;;;11.66;100.00;102436.31;4152318;28;20021;-74
2021/09/22 01:00:27;;;;;;;9.05;5.68;;;11.90;99.90;;;11.60;100.00;102437.63;4152155;28;20033;-74
2021/09/22 01:02:28;;;;;;;7.88;4.95;;;11.90;99.90;;;11.58;100.00;102441.38;4152309;28;20100;-74
2021/09/22 01:04:29;;;;;;;8.40;5.60;;;11.90;99.90;;;11.63;100.00;102429.47;4152325;28;20532;-74
2021/09/22 01:06:30;;;;;;;7.53;5.45;;;11.90;99.90;;;11.68;100.00;102422.97;4153155;28;20382;-74
2021/09/22 01:08:32;;;;;;;7.15;5.18;;;11.90;99.90;;;11.70;100.00;102426.38;4151953;28;20116;-74
2021/09/22 01:10:33;;;;;;;6.35;5.05;;;11.90;99.90;;;11.60;100.00;102423.56;4152233;28;20489;-74
2021/09/22 01:12:34;;;;;;;5.78;4.57;;;11.80;99.90;;;11.61;100.00;102423.47;4153335;28;20018;-74
2021/09/22 01:14:36;;;;;;;5.30;4.80;;;11.90;99.90;;;11.69;100.00;102420.19;4153271;28;20030;-74
2021/09/22 01:16:45;;;;;;;8.35;4.90;;;11.90;99.90;;;11.68;99.51;102423.78;4135732;28;20213;-74
2021/09/22 01:18:46;;;;;;;6.65;5.18;;;11.90;99.90;;;11.63;99.08;102424.19;4151903;28;20109;-74
2021/09/22 01:20:56;;;;;;;8.48;4.93;;;11.90;99.90;;;11.60;99.72;102413.84;4151522;28;20088;-74
2021/09/22 01:23:00;;;;;;;6.28;4.50;;;11.90;99.90;;;11.59;100.00;102416.59;4150206;28;20034;-74
2021/09/22 01:25:01;;;;;;;7.47;5.85;;;11.80;99.90;;;11.60;99.59;102407.72;4163101;28;20087;-74
2021/09/22 01:27:03;;;;;;;6.43;4.95;;;11.80;99.90;;;11.57;99.15;102400.03;4160113;28;20033;-74
2021/09/22 01:29:04;;;;;;;7.38;5.30;;;11.80;99.90;;;11.62;98.58;102414.56;4168174;28;20025;-74
2021/09/22 01:31:05;;;;;;;7.18;5.95;;;11.80;99.90;;;11.63;98.89;102415.41;4151620;28;20401;-74
2021/09/22 01:33:10;;;;;;;8.65;6.15;;;11.80;99.90;;;11.46;98.98;102419.38;4169280;28;20105;-74
2021/09/22 01:35:11;;;;;;;7.22;5.60;;;11.80;99.90;;;11.45;99.42;102411.56;4168124;28;20025;-74
2021/09/22 01:37:12;;;;;;;6.22;5.55;;;11.70;99.90;;;11.40;100.00;102405.81;4169065;28;20037;-74
2021/09/22 01:39:13;;;;;;;8.00;6.05;;;11.70;99.90;;;11.36;100.00;102407.00;4167913;28;20032;-74
2021/09/22 01:41:14;;;;;;;6.65;5.53;;;11.70;99.90;;;11.47;100.00;102420.22;4169225;28;20057;-74
2021/09/22 01:43:15;;;;;;;7.90;6.05;;;11.70;99.90;;;11.44;99.90;102420.47;4160226;28;20060;-74
2021/09/22 01:45:16;;;;;;;7.93;5.10;;;11.70;99.90;;;11.42;99.64;102417.09;4135604;28;20030;-74
2021/09/22 01:47:17;;;;;;;8.18;5.30;;;11.70;99.90;;;11.31;99.83;102409.19;4151236;28;20046;-74
2021/09/22 01:49:23;;;;;;;6.00;4.63;;;11.70;99.90;;;11.49;98.76;102423.59;4151500;28;20034;-74
2021/09/22 01:51:24;;;;;;;10.60;5.93;;;11.70;99.90;;;11.37;98.19;102408.69;4134998;28;20026;-74
2021/09/22 01:53:26;;;;;;;5.97;4.95;;;11.60;99.90;;;11.45;98.43;102428.28;4151528;28;20103;-74
2021/09/22 01:55:27;;;;;;;9.05;5.45;;;11.60;99.90;;;11.36;99.13;102421.06;4152515;28;20022;-74
2021/09/22 01:57:28;;;;;;;6.70;5.65;;;11.60;99.90;;;11.28;99.14;102426.13;4151531;28;20549;-74
2021/09/22 01:59:29;;;;;;;6.90;4.85;;;11.60;99.90;;;11.23;99.15;102419.50;4151382;28;20058;-74
2021/09/22 02:01:30;;;;;;;5.35;4.30;;;11.60;99.90;;;11.30;98.41;102420.69;4151306;28;20106;-74
2021/09/22 02:03:31;;;;;;;6.18;4.97;;;11.50;99.90;;;11.34;97.07;102419.50;4151278;28;20041;-74
2021/09/22 02:05:33;;;;;;;6.68;4.68;;;11.50;99.90;;;11.30;96.42;102405.69;4134931;28;20030;-74
2021/09/22 02:07:34;;;;;;;6.82;5.55;;;11.50;99.90;;;11.33;96.57;102408.09;4151176;28;20049;-74
2021/09/22 02:09:35;;;;;;;5.88;4.90;;;11.50;99.90;;;11.04;97.14;102391.03;4134720;28;20464;-74
2021/09/22 02:11:36;;;;;;;7.07;5.25;;;11.40;99.90;;;11.13;97.81;102400.88;4151107;28;20029;-74
2021/09/22 02:13:37;;;;;;;6.57;5.78;;;11.40;99.90;;;11.16;97.72;102391.88;4151518;28;20402;-74
2021/09/22 02:15:39;;;;;;;7.18;5.93;;;11.40;99.90;;;11.02;98.40;102387.69;4152419;28;20022;-74
2021/09/22 02:17:40;;;;;;;7.53;5.55;;;11.40;99.90;;;11.05;99.12;102403.28;4152315;28;20096;-74
2021/09/22 02:19:41;;;;;;;9.55;6.65;;;11.30;99.90;;;11.01;100.00;102400.03;4151113;28;20449;-74
2021/09/22 02:21:42;;;;;;;7.95;5.95;;;11.40;99.90;;;10.95;99.92;102397.88;4150887;28;20029;-74
2021/09/22 02:23:43;;;;;;;6.93;5.90;;;11.30;99.90;;;11.03;99.90;102405.19;4151320;28;20033;-74
2021/09/22 02:25:44;;;;;;;8.70;6.60;;;11.30;99.90;;;11.01;98.98;102404.47;4150965;28;20128;-74
2021/09/22 02:27:45;;;;;;;8.13;6.45;;;11.20;99.90;;;10.81;98.76;102407.81;4150992;28;20034;-74
2021/09/22 02:29:48;;;;;;;8.35;6.40;;;11.20;99.90;;;10.73;99.77;102386.41;4152342;28;20492;-74
2021/09/22 02:31:49;;;;;;;7.28;6.22;;;11.20;99.90;;;10.81;99.87;102390.16;4152240;28;20061;-74
2021/09/22 02:33:50;;;;;;;9.77;6.75;;;11.10;99.90;;;10.90;99.61;102402.66;4152329;28;20527;-74
2021/09/22 02:35:51;;;;;;;7.43;6.28;;;11.20;99.90;;;10.87;99.15;102388.88;4151981;28;20029;-74
2021/09/22 02:37:52;;;;;;;7.57;5.78;;;11.10;99.90;;;10.69;99.78;102385.84;4139397;28;20402;-74
2021/09/22 02:39:55;;;;;;;8.23;6.68;;;11.10;99.90;;;10.80;100.00;102377.94;4159423;28;20105;-74
2021/09/22 02:41:56;;;;;;;11.25;7.72;;;11.00;99.90;;;10.82;100.00;102373.34;4150872;28;20197;-74
2021/09/22 02:43:58;;;;;;;9.70;7.10;;;11.10;99.90;;;10.74;100.00;102365.19;4163808;28;20029;-74
2021/09/22 02:45:59;;;;;;;9.27;7.18;;;11.10;99.90;;;10.69;100.00;102375.28;4150779;28;20036;-74
2021/09/22 02:48:00;;;;;;;8.48;7.30;;;11.00;99.90;;;10.56;100.00;102366.59;4134456;28;20022;-74
2021/09/22 02:50:02;;;;;;;10.40;8.10;;;11.00;99.90;;;10.58;100.00;102377.88;4152008;28;20061;-74
2021/09/22 02:52:04;;;;;;;11.80;8.85;;;10.90;99.90;;;10.65;100.00;102381.72;4134171;28;20073;-74
2021/09/22 02:54:05;;;;;;;9.55;7.78;;;11.00;99.90;;;10.65;100.00;102376.47;4150903;28;20030;-74
2021/09/22 02:56:05;;;;;;;9.85;7.10;;;11.00;99.90;;;10.74;100.00;102381.03;4150949;28;20044;-74
2021/09/22 02:58:06;;;;;;;8.68;7.18;;;11.00;99.90;;;10.77;100.00;102383.44;4151982;28;20069;-74
2021/09/22 03:00:10;;;;;;;11.25;8.63;;;11.00;99.90;;;10.73;100.00;102357.38;4151862;28;20037;-74
2021/09/22 03:02:11;;;;;;;11.43;8.38;;;11.00;99.90;;;10.68;100.00;102362.19;4150899;28;20092;-74
2021/09/22 03:04:12;;;;;;;9.73;8.38;;;11.00;99.90;;;10.67;100.00;102384.25;4150780;28;20030;-74
2021/09/22 03:06:13;;;;;;;11.95;8.90;;;11.00;99.90;;;10.57;100.00;102368.28;4150521;28;20037;-74
2021/09/22 03:08:14;;;;;;;9.13;7.63;;;11.00;99.90;;;10.61;100.00;102374.16;4134186;28;20038;-74
2021/09/22 03:10:16;;;;;;;8.90;6.88;;;11.00;99.90;;;10.58;100.00;102375.22;4134459;28;20033;-74
2021/09/22 03:12:17;;;;;;;7.97;6.63;;;10.90;99.90;;;10.64;100.00;102368.63;4150725;28;20064;-74
2021/09/22 03:14:18;;;;;;;8.65;6.18;;;10.90;99.90;;;10.63;100.00;102370.47;4150693;28;20038;-74
2021/09/22 03:16:19;;;;;;;10.15;7.63;;;10.90;99.90;;;10.60;100.00;102373.34;4150445;28;20026;-74
2021/09/22 03:18:20;;;;;;;10.60;7.85;;;10.90;99.90;;;10.62;100.00;102368.78;4150703;28;20037;-74
2021/09/22 03:20:21;;;;;;;10.18;8.43;;;10.90;99.90;;;10.62;100.00;102374.06;4151362;28;20029;-74
2021/09/22 03:22:22;;;;;;;9.93;8.60;;;10.90;99.90;;;10.46;100.00;102362.97;4153635;28;20088;-74
2021/09/22 03:24:23;;;;;;;11.13;8.88;;;10.90;99.90;;;10.55;100.00;102380.75;4153704;28;20497;-74
2021/09/22 03:26:25;;;;;;;10.88;8.10;;;10.90;99.90;;;10.52;100.00;102365.97;4153838;28;20061;-74
2021/09/22 03:28:26;;;;;;;9.50;7.65;;;10.90;99.90;;;10.58;100.00;102377.88;4153722;28;20094;-74
2021/09/22 03:30:27;;;;;;;10.90;7.97;;;10.90;99.90;;;10.48;100.00;102364.53;4153790;28;20029;-74
2021/09/22 03:32:28;;;;;;;10.88;8.43;;;10.90;99.90;;;10.50;100.00;102367.91;4153674;28;20030;-74
2021/09/22 03:34:29;;;;;;;10.38;8.55;;;10.90;99.90;;;10.52;100.00;102375.69;4154878;28;20037;-74
2021/09/22 03:36:30;;;;;;;10.52;8.10;;;10.80;99.90;;;10.50;100.00;102378.47;4153317;28;20024;-74
2021/09/22 03:38:32;;;;;;;10.43;7.80;;;10.90;99.90;;;10.55;100.00;102373.66;4137265;28;20035;-74
2021/09/22 03:40:33;;;;;;;12.68;9.25;;;10.90;99.90;;;10.55;100.00;102370.19;4153397;28;20153;-74
2021/09/22 03:42:34;;;;;;;11.57;9.35;;;10.90;99.90;;;10.62;100.00;102362.66;4140507;28;20057;-74
2021/09/22 03:44:35;;;;;;;11.10;8.48;;;10.80;99.90;;;10.63;100.00;102364.34;4163486;28;20065;-74
2021/09/22 03:46:36;;;;;;;12.13;9.90;;;10.90;99.90;;;10.71;100.00;102370.72;4154503;28;20053;-74
2021/09/22 03:48:37;;;;;;;11.52;8.25;;;10.90;99.90;;;10.78;100.00;102374.53;4136932;28;20034;-74
2021/09/22 03:50:38;;;;;;;9.88;7.93;;;11.00;99.90;;;10.72;100.00;102382.13;4136754;28;20038;-74
2021/09/22 03:52:39;;;;;;;13.57;8.38;;;11.00;99.90;;;10.63;100.00;102377.53;4153346;28;20022;-74
2021/09/22 03:54:40;;;;;;;11.60;9.32;;;10.90;99.90;;;10.64;100.00;102377.41;4153287;28;20041;-74
2021/09/22 03:56:41;;;;;;;12.55;9.35;;;10.90;99.90;;;10.57;100.00;102360.38;4136894;28;20061;-74
2021/09/22 03:58:42;;;;;;;11.55;8.68;;;10.90;99.90;;;10.53;100.00;102365.03;4154376;28;20048;-74
2021/09/22 04:00:44;;;;;;;12.40;9.85;;;11.00;99.90;;;10.70;100.00;102360.25;4153439;28;20518;-74
2021/09/22 04:02:45;;;;;;;12.55;10.25;;;11.00;99.90;;;10.71;100.00;102354.88;4154378;28;20104;-74
2021/09/22 04:04:45;;;;;;;12.40;9.15;;;10.90;99.90;;;10.63;100.00;102338.78;4154327;28;20026;-74
2021/09/22 04:06:46;;;;;;;10.98;8.77;;;11.00;99.90;;;10.66;100.00;102362.31;4152721;28;20121;-74
2021/09/22 04:08:47;;;;;;;11.13;9.15;;;11.00;99.90;;;10.70;100.00;102360.25;4153035;28;20073;-74
2021/09/22 04:10:48;;;;;;;13.95;10.45;;;11.00;99.90;;;10.69;100.00;102351.53;4153081;28;20034;-74
2021/09/22 04:12:49;;;;;;;11.90;10.00;;;11.00;99.90;;;10.78;100.00;102357.88;4152879;28;20149;-74
2021/09/22 04:14:50;;;;;;;13.00;9.88;;;11.00;99.90;;;11.01;100.00;102363.06;4152897;28;20057;-74
2021/09/22 04:16:51;;;;;;;12.27;10.23;;;11.00;99.90;;;10.87;100.00;102367.75;4152963;28;20026;-74
2021/09/22 04:18:52;;;;;;;14.63;10.48;;;11.10;99.90;;;10.79;100.00;102365.69;4152783;28;20402;-74
2021/09/22 04:20:53;;;;;;;15.23;11.50;;;11.10;99.90;;;10.92;100.00;102360.28;4152456;28;20032;-74
2021/09/22 04:22:55;;;;;;;15.65;10.77;;;11.10;99.90;;;11.03;100.00;102358.50;4152613;28;20037;-74
2021/09/22 04:24:55;;;;;;;18.25;11.77;;;11.10;99.90;;;10.91;100.00;102354.19;4152608;28;20084;-74
2021/09/22 04:26:57;;;;;;;13.80;10.13;;;11.20;99.90;;;10.81;100.00;102368.22;4152698;28;20034;-74
2021/09/22 04:28:57;;;;;;;12.15;9.95;;;11.10;99.90;;;10.68;100.00;102357.75;4152533;28;20033;-74
2021/09/22 04:30:58;;;;;;;17.35;11.65;;;11.10;99.90;;;10.73;100.00;102362.66;4152151;28;20037;-74
2021/09/22 04:33:00;;;;;;;15.10;11.63;;;11.10;99.90;;;10.74;100.00;102349.38;4152870;28;20057;-74
2021/09/22 04:35:01;;;;;;;15.93;11.20;;;11.10;99.90;;;10.80;100.00;102348.91;4152505;28;20109;-74
2021/09/22 04:37:02;;;;;;;16.42;12.70;;;11.10;99.90;;;10.96;100.00;102354.66;4153512;28;20517;-74
2021/09/22 04:39:07;;;;;;;14.18;10.75;;;11.10;99.90;;;10.91;100.00;102358.59;4150116;28;20034;-74
2021/09/22 04:41:08;;;;;;;14.70;10.70;;;11.10;99.90;;;10.85;100.00;102357.28;4164122;28;20076;-74
2021/09/22 04:43:09;;;;;;;13.07;10.45;;;11.20;99.90;;;10.82;100.00;102354.88;4160574;28;20029;-74
2021/09/22 04:45:10;;;;;;;14.73;10.98;;;11.10;99.90;;;10.70;100.00;102340.00;4141200;28;20031;-74
2021/09/22 04:47:11;;;;;;;19.00;14.23;;;11.00;99.90;;;10.82;100.00;102357.53;4166768;28;20049;-74
2021/09/22 04:49:12;;;;;;;15.60;12.05;;;11.10;99.90;;;10.81;100.00;102350.56;4164349;28;20092;-74
2021/09/22 04:51:13;;;;;;;18.05;12.50;;;11.10;99.90;;;10.78;100.00;102348.16;4143518;28;20036;-74
2021/09/22 04:53:14;;;;;;;19.40;14.13;;;11.10;99.90;;;10.82;100.00;102348.75;4157676;28;20097;-74
2021/09/22 04:55:16;;;;;;;19.17;13.27;;;11.20;99.90;;;10.87;100.00;102354.53;4153686;28;20038;-74
2021/09/22 04:57:17;;;;;;;14.65;12.00;;;11.10;99.90;;;10.80;100.00;102361.25;4153572;28;20029;-74
2021/09/22 04:59:18;;;;;;;16.15;13.25;;;11.10;99.90;;;10.71;100.00;102346.13;4152415;28;20112;-74
2021/09/22 05:01:19;;;;;;;15.85;13.23;;;11.10;99.90;;;10.82;100.00;102354.03;4152165;28;20060;-74
2021/09/22 05:03:19;;;;;;;16.55;12.40;;;11.10;99.90;;;10.84;100.00;102347.69;4153186;28;20053;-74
2021/09/22 05:05:20;;;;;;;18.15;13.50;;;11.10;99.90;;;10.96;100.00;102336.16;4153416;28;20032;-74
2021/09/22 05:07:21;;;;;;;16.60;13.50;;;11.10;99.90;;;11.05;100.00;102361.03;4153114;28;20672;-74
2021/09/22 05:09:22;;;;;;;20.27;14.75;;;11.20;99.90;;;10.95;100.00;102368.81;4153292;28;20030;-74
2021/09/22 05:11:25;;;;;;;19.20;13.30;;;11.20;99.90;;;10.80;100.00;102362.09;4153224;28;20030;-74
2021/09/22 05:13:26;;;;;;;18.25;13.60;;;11.20;99.90;;;10.79;100.00;102355.13;4152167;28;20018;-74
2021/09/22 05:15:28;;;;;;;17.70;13.10;;;11.10;99.90;;;10.76;100.00;102355.34;4151793;28;20722;-74
2021/09/22 05:17:29;;;;;;;19.90;12.82;;;11.20;99.90;;;10.75;100.00;102358.94;4152091;28;20030;-75
2021/09/22 05:19:30;;;;;;;18.00;12.57;;;11.10;99.90;;;10.79;100.00;102363.03;4153069;28;20030;-74
2021/09/22 05:21:31;;;;;;;16.40;12.57;;;11.10;99.90;;;10.71;100.00;102346.97;4151948;28;20030;-74
2021/09/22 05:23:32;;;;;;;16.10;13.13;;;11.10;99.90;;;10.90;100.00;102347.19;4156101;28;20057;-74
2021/09/22 05:25:33;;;;;;;16.40;11.52;;;11.10;99.90;;;10.90;100.00;102343.75;4159298;28;20022;-74
2021/09/22 05:27:34;;;;;;;16.40;11.70;;;11.10;99.90;;;10.86;100.00;102361.63;4154725;28;20061;-74
2021/09/22 05:29:36;;;;;;;16.80;12.10;;;11.10;99.90;;;10.77;100.00;102350.91;4152055;28;20501;-74
2021/09/22 05:31:37;;;;;;;16.83;12.82;;;11.10;99.90;;;10.81;100.00;102347.09;4151906;28;20026;-74
2021/09/22 05:33:38;;;;;;;16.05;12.23;;;11.10;99.90;;;10.66;100.00;102341.19;4135445;28;20027;-74
2021/09/22 05:35:39;;;;;;;16.90;12.57;;;11.00;99.90;;;10.80;100.00;102340.13;4151352;28;20037;-74
2021/09/22 05:37:40;;;;;;;17.33;12.38;;;11.10;99.90;;;10.67;100.00;102340.22;4151774;28;20037;-74
2021/09/22 05:39:41;;;;;;;14.38;11.05;;;11.00;99.90;;;10.58;100.00;102348.84;4152940;28;20030;-75
2021/09/22 05:41:42;;;;;;;20.00;13.43;;;11.00;99.90;;;10.60;100.00;102354.00;4145338;28;20036;-75
2021/09/22 05:43:43;;;;;;;15.85;11.45;;;11.00;99.90;;;10.47;100.00;102336.47;4154440;28;20047;-75
2021/09/22 05:45:44;;;;;;;16.88;12.57;;;10.90;99.90;;;10.57;100.00;102356.88;4151590;28;20116;-75
2021/09/22 05:47:45;;;;;;;17.35;12.88;;;10.90;99.90;;;10.54;100.00;102342.13;4158593;28;20505;-74
2021/09/22 05:49:46;;;;;;;17.17;13.52;;;10.90;99.90;;;10.54;100.00;102344.78;4167843;28;20112;-74
2021/09/22 05:51:47;;;;;;;22.00;13.68;;;10.90;99.90;;;10.70;100.00;102352.34;4167442;28;20022;-74
2021/09/22 05:53:49;;;;;;;17.63;13.93;;;10.90;99.90;;;10.76;100.00;102357.16;4151277;28;20029;-74
2021/09/22 05:55:50;;;;;;;18.38;13.60;;;10.90;99.90;;;10.72;100.00;102343.34;4167778;28;20026;-74
2021/09/22 05:57:50;;;;;;;21.58;15.05;;;11.00;99.90;;;10.82;100.00;102344.31;4151600;28;20045;-74
2021/09/22 05:59:52;;;;;;;20.38;15.38;;;11.00;99.90;;;11.05;100.00;102348.66;4167643;28;20037;-74
2021/09/22 06:01:53;;;;;;;19.63;14.50;;;11.10;99.90;;;11.02;100.00;102351.53;4167655;28;20437;-74
2021/09/22 06:03:54;;;;;;;25.08;16.40;;;11.10;99.90;;;11.18;100.00;102355.63;4167856;28;20087;-74
2021/09/22 06:05:55;;;;;;;17.75;13.90;;;11.30;99.90;;;10.97;100.00;102356.34;4167403;28;20017;-74
2021/09/22 06:07:56;;;;;;;19.83;14.90;;;11.30;99.90;;;10.89;100.00;102356.09;4167422;28;20029;-74
2021/09/22 06:09:57;;;;;;;18.52;13.85;;;11.20;99.90;;;10.84;100.00;102366.16;4168653;28;20120;-74
2021/09/22 06:11:58;;;;;;;23.52;15.40;;;11.20;99.90;;;10.82;100.00;102372.50;4167681;28;20033;-74
2021/09/22 06:13:59;;;;;;;20.15;14.05;;;11.20;99.90;;;10.73;100.00;102355.59;4167598;28;20068;-74
2021/09/22 06:16:00;;;;;;;20.30;15.20;;;11.10;99.90;;;10.79;100.00;102355.13;4151125;28;20393;-74
2021/09/22 06:18:01;;;;;;;20.15;14.55;;;11.20;99.90;;;10.77;100.00;102348.28;4150841;28;20026;-75
2021/09/22 06:20:03;;;;;;;19.25;14.85;;;11.10;99.90;;;10.87;100.00;102352.72;4167508;28;20026;-75
2021/09/22 06:22:04;;;;;;;18.50;13.90;;;11.20;99.90;;;10.87;100.00;102342.16;4167031;28;20026;-74
2021/09/22 06:24:06;;;;;;;28.92;16.10;;;11.20;99.90;;;10.87;100.00;102363.28;4183629;28;20112;-75
2021/09/22 06:26:07;;;;;;;18.52;13.23;;;11.20;99.90;;;10.87;100.00;102358.00;4150882;28;20405;-74
2021/09/22 06:28:08;;;;;;;17.58;13.77;;;11.20;99.90;;;10.85;100.00;102359.09;4167095;28;20033;-75
2021/09/22 06:30:10;;;;;;;19.75;14.52;;;11.20;99.90;;;10.85;100.00;102369.63;4150798;28;20026;-75
2021/09/22 06:32:12;;;;;;;23.10;14.85;;;11.20;99.90;;;10.89;100.00;102376.38;4167093;28;20034;-74
2021/09/22 06:34:12;;;;;;;19.20;14.02;;;11.20;99.90;;;10.91;100.00;102350.69;4167193;28;20394;-75
2021/09/22 06:36:14;;;;;;;20.77;14.73;;;11.30;99.90;;;10.92;100.00;102347.09;4166792;28;20124;-75
2021/09/22 06:38:15;;;;;;;18.35;13.88;;;11.30;99.90;;;10.94;100.00;102367.13;4168201;28;20025;-74
2021/09/22 06:40:20;;;;;;;19.08;14.63;;;11.30;99.90;;;11.03;100.00;102369.06;4167106;28;20037;-75
2021/09/22 06:42:21;;;;;;;17.88;12.70;;;11.40;99.90;;;11.07;100.00;102357.31;4159085;28;20040;-75
2021/09/22 06:44:22;;;;;;;19.80;13.90;;;11.40;99.90;;;11.22;100.00;102367.63;4151701;28;20033;-74
2021/09/22 06:46:23;;;;;;;17.55;13.90;;;11.50;99.90;;;11.31;100.00;102372.19;4151648;28;20053;-74
2021/09/22 06:48:24;;;;;;;21.92;15.85;;;11.50;99.90;;;11.20;100.00;102354.53;4151351;28;20034;-73
2021/09/22 06:50:28;;;;;;;24.20;16.42;;;11.50;99.90;;;11.48;100.00;102364.59;4152591;28;20026;-74
2021/09/22 06:52:30;;;;;;;19.92;15.65;;;11.60;99.90;;;11.58;99.87;102362.06;4151741;28;20557;-73
2021/09/22 06:54:33;;;;;;;17.83;12.52;;;11.70;99.90;;;11.51;100.00;102358.22;4152350;28;20026;-74
2021/09/22 06:56:34;;;;;;;19.05;14.70;;;11.80;99.90;;;11.55;100.00;102357.88;4154965;28;20572;-74
2021/09/22 06:58:35;;;;;;;17.35;13.35;;;11.90;99.90;;;11.45;100.00;102362.22;4156007;28;20099;-74
2021/09/22 07:00:37;;;;;;;22.50;16.15;;;11.90;99.90;;;11.45;100.00;102364.00;4160927;28;20033;-74
2021/09/22 07:02:38;;;;;;;22.20;16.13;;;11.90;99.90;;;11.69;100.00;102367.31;4161043;28;20409;-74
2021/09/22 07:04:39;;;;;;;23.33;15.82;;;11.90;99.90;;;11.62;99.85;102355.56;4162485;28;20029;-74
2021/09/22 07:06:41;;;;;;;21.83;16.15;;;12.00;99.90;;;11.59;100.00;102356.66;4160906;28;20077;-74
2021/09/22 07:08:42;;;;;;;23.52;15.38;;;12.10;99.90;;;11.80;100.00;102366.50;4162206;28;20038;-74
2021/09/22 07:10:43;;;;;;;21.08;14.90;;;12.10;99.90;;;11.69;100.00;102354.09;4162777;28;20085;-75
2021/09/22 07:12:45;;;;;;;21.08;15.65;;;12.10;99.90;;;11.74;100.00;102357.25;4143793;28;20033;-75
2021/09/22 07:14:46;;;;;;;21.38;16.48;;;12.10;99.90;;;11.79;100.00;102352.44;4170956;28;20564;-75
2021/09/22 07:16:50;;;;;;;23.63;17.13;;;12.20;99.90;;;11.71;100.00;102354.84;4138925;28;20510;-75
2021/09/22 07:18:52;;;;;;;19.15;15.10;;;12.20;99.90;;;11.84;100.00;102358.19;4146506;28;20025;-75
2021/09/22 07:20:53;;;;;;;21.27;15.95;;;12.30;99.90;;;11.83;100.00;102364.44;4155660;28;20048;-75
2021/09/22 07:22:55;;;;;;;23.30;16.88;;;12.20;99.90;;;11.89;100.00;102363.94;4154643;28;20485;-74
2021/09/22 07:24:56;;;;;;;26.20;16.40;;;12.30;99.90;;;11.89;100.00;102358.66;4154920;28;20037;-75
2021/09/22 07:26:57;;;;;;;22.55;16.23;;;12.30;99.90;;;11.90;100.00;102355.06;4154742;28;20052;-74
2021/09/22 07:28:59;;;;;;;22.63;17.02;;;12.30;99.90;;;11.90;100.00;102365.63;4154561;28;20026;-78
2021/09/22 07:31:01;;;;;;;24.13;17.25;;;12.30;99.90;;;11.96;100.00;102365.13;4154179;28;20022;-76
2021/09/22 07:33:03;;;;;;;22.08;16.35;;;12.40;99.90;;;12.02;100.00;102380.50;4155837;28;20026;-77
2021/09/22 07:35:04;;;;;;;24.45;16.98;;;12.40;99.90;;;11.91;100.00;102367.31;4138327;28;20074;-77
2021/09/22 07:37:08;;;;;;;23.25;18.10;;;12.50;99.90;;;11.84;100.00;102365.28;4155105;28;20097;-77
2021/09/22 07:39:09;;;;;;;22.70;17.08;;;12.50;99.90;;;11.85;100.00;102367.81;4154251;28;20041;-76
2021/09/22 07:41:10;;;;;;;25.58;17.48;;;12.50;99.90;;;11.86;100.00;102363.34;4159221;28;20112;-77
2021/09/22 07:43:11;;;;;;;24.35;17.70;;;12.50;99.90;;;11.97;100.00;102366.81;4163620;28;20513;-77
2021/09/22 07:45:13;;;;;;;25.48;17.27;;;12.60;99.90;;;12.05;100.00;102374.94;4159636;28;20030;-77
2021/09/22 07:47:16;;;;;;;28.83;18.08;;;12.60;99.90;;;11.99;100.00;102380.75;4160153;28;20117;-77
2021/09/22 07:49:17;;;;;;;27.20;17.63;;;12.60;99.90;;;12.07;100.00;102378.31;4154409;28;20035;-77
2021/09/22 07:51:18;;;;;;;26.88;17.58;;;12.70;99.90;;;12.10;100.00;102388.63;4155142;28;20554;-77
2021/09/22 07:53:20;;;;;;;24.30;18.65;;;12.70;99.90;;;12.05;100.00;102372.31;4157847;28;20022;-77
2021/09/22 07:55:21;;;;;;;23.50;17.98;;;12.70;99.90;;;12.15;100.00;102386.47;4156688;28;20030;-77
2021/09/22 07:57:23;;;;;;;25.95;18.08;;;12.80;99.90;;;12.19;100.00;102387.88;4152426;28;20581;-77
2021/09/22 07:59:24;;;;;;;25.45;17.67;;;12.80;99.90;;;12.32;100.00;102390.34;4170422;28;20053;-77
2021/09/22 08:01:25;;;;;;;24.83;18.73;;;12.90;99.90;;;12.54;100.00;102402.66;4170212;28;20021;-77
2021/09/22 08:03:26;;;;;;;25.15;19.13;;;13.00;99.90;;;12.49;100.00;102395.06;4171456;28;20025;-77
2021/09/22 08:05:30;;;;;;;23.65;17.15;;;13.10;99.90;;;12.60;100.00;102383.59;4171510;28;20064;-76
2021/09/22 08:07:31;;;;;;;25.77;18.90;;;13.10;99.90;;;12.70;100.00;102398.56;4163155;28;20040;-76
2021/09/22 08:09:33;;;;;;;22.95;16.30;;;13.20;99.90;;;12.72;100.00;102396.63;4161188;28;20029;-77
2021/09/22 08:11:34;;;;;;;23.40;16.83;;;13.30;99.90;;;12.69;100.00;102381.00;4141390;28;20026;-77
2021/09/22 08:13:35;;;;;;;23.67;17.80;;;13.30;99.90;;;12.90;100.00;102388.97;4137846;28;20072;-74
2021/09/22 08:15:36;;;;;;;23.58;17.60;;;13.40;99.90;;;13.06;100.00;102386.66;4153695;28;20025;-74